sensor_id;sensor_type;location;lat;lon;timestamp;P1;durP1;ratioP1;P2;durP2;ratioP2
40527;SDS011;26230;51.268;6.534;2023-11-19T00:00:00;8.1;;;7.5;;
40527;SDS011;26230;51.268;6.534;2023-11-19T00:01:00;8.1;;;7.5;;
40527;SDS011;26230;51.268;6.534;2023-11-19T00:02:00;8.1;;;7.5;;
40527;SDS011;26230;51.268;6.534;2023-11-19T00:03:01;8.1;;;7.5;;
40527;SDS011;26230;51.268;6.534;2023-11-19T00:04:00;8.1;;;7.5;;
40527;SDS011;26230;51.268;6.534;2023-11-19T00:05:00;8.1;;;7.5;;
40527;SDS011;26230;51.268;6.534;2023-11-19T00:06:01;8.1;;;7.5;;
40527;SDS011;26230;51.268;6.534;2023-11-19T00:07:03;8.1;;;7.5;;
40527;SDS011;26230;51.268;6.534;2023-11-19T00:08:02;8.1;;;7.5;;
40527;SDS011;26230;51.268;6.534;2023-11-19T00:09:00;8.1;;;7.5;;
40527;SDS011;26230;51.268;6.534;2023-11-19T00:10:03;8.1;;;7.5;;
40527;SDS011;26230;51.268;6.534;2023-11-19T00:11:01;8.1;;;7.5;;
40527;SDS011;26230;51.268;6.534;2023-11-19T00:12:00;8.1;;;7.5;;
40527;SDS011;26230;51.268;6.534;2023-11-19T00:13:02;8.1;;;7.5;;
40527;SDS011;26230;51.268;6.534;2023-11-19T00:14:00;8.1;;;7.5;;
40527;SDS011;26230;51.268;6.534;2023-11-19T00:15:00;8.6;;;7.8;;
40527;SDS011;26230;51.268;6.534;2023-11-19T00:16:00;8.6;;;7.8;;
40527;SDS011;26230;51.268;6.534;2023-11-19T00:17:00;8.6;;;7.8;;
40527;SDS011;26230;51.268;6.534;2023-11-19T00:18:04;8.6;;;7.8;;
40527;SDS011;26230;51.268;6.534;2023-11-19T00:19:00;8.6;;;7.8;;
40527;SDS011;26230;51.268;6.534;2023-11-19T00:20:00;8.6;;;7.8;;
40527;SDS011;26230;51.268;6.534;2023-11-19T00:21:02;8.6;;;7.8;;
40527;SDS011;26230;51.268;6.534;2023-11-19T00:22:03;8.6;;;7.8;;
40527;SDS011;26230;51.268;6.534;2023-11-19T00:23:02;8.6;;;7.8;;
40527;SDS011;26230;51.268;6.534;2023-11-19T00:24:00;8.6;;;7.8;;
40527;SDS011;26230;51.268;6.534;2023-11-19T00:25:00;8.6;;;7.8;;
40527;SDS011;26230;51.268;6.534;2023-11-19T00:26:00;8.6;;;7.8;;
40527;SDS011;26230;51.268;6.534;2023-11-19T00:27:00;8.6;;;7.8;;
40527;SDS011;26230;51.268;6.534;2023-11-19T00:28:00;8.6;;;7.8;;
40527;SDS011;26230;51.268;6.534;2023-11-19T00:29:00;8.6;;;7.8;;
40527;SDS011;26230;51.268;6.534;2023-11-19T00:30:00;8.5;;;7.8;;
40527;SDS011;26230;51.268;6.534;2023-11-19T00:31:00;8.5;;;7.8;;
40527;SDS011;26230;51.268;6.534;2023-11-19T00:32:00;8.5;;;7.8;;
40527;SDS011;26230;51.268;6.534;2023-11-19T00:33:01;8.5;;;7.8;;
40527;SDS011;26230;51.268;6.534;2023-11-19T00:34:01;8.5;;;7.8;;
40527;SDS011;26230;51.268;6.534;2023-11-19T00:35:00;8.5;;;7.8;;
40527;SDS011;26230;51.268;6.534;2023-11-19T00:36:00;8.5;;;7.8;;
40527;SDS011;26230;51.268;6.534;2023-11-19T00:37:00;8.5;;;7.8;;
40527;SDS011;26230;51.268;6.534;2023-11-19T00:38:00;8.5;;;7.8;;
40527;SDS011;26230;51.268;6.534;2023-11-19T00:39:00;8.5;;;7.8;;
40527;SDS011;26230;51.268;6.534;2023-11-19T00:40:00;8.5;;;7.8;;
40527;SDS011;26230;51.268;6.534;2023-11-19T00:41:00;8.5;;;7.8;;
40527;SDS011;26230;51.268;6.534;2023-11-19T00:42:00;8.5;;;7.8;;
40527;SDS011;26230;51.268;6.534;2023-11-19T00:43:02;8.5;;;7.8;;
40527;SDS011;26230;51.268;6.534;2023-11-19T00:44:00;8.5;;;7.8;;
40527;SDS011;26230;51.268;6.534;2023-11-19T00:45:01;8.4;;;7.7;;
40527;SDS011;26230;51.268;6.534;2023-11-19T00:46:00;8.4;;;7.7;;
40527;SDS011;26230;51.268;6.534;2023-11-19T00:47:00;8.4;;;7.7;;
40527;SDS011;26230;51.268;6.534;2023-11-19T00:48:00;8.4;;;7.7;;
40527;SDS011;26230;51.268;6.534;2023-11-19T00:49:01;8.4;;;7.7;;
40527;SDS011;26230;51.268;6.534;2023-11-19T00:50:01;8.4;;;7.7;;
40527;SDS011;26230;51.268;6.534;2023-11-19T00:51:00;8.4;;;7.7;;
40527;SDS011;26230;51.268;6.534;2023-11-19T00:52:02;8.4;;;7.7;;
40527;SDS011;26230;51.268;6.534;2023-11-19T00:53:00;8.4;;;7.7;;
40527;SDS011;26230;51.268;6.534;2023-11-19T00:55:00;8.4;;;7.7;;
40527;SDS011;26230;51.268;6.534;2023-11-19T01:00:00;8.4;;;7.8;;
40527;SDS011;26230;51.268;6.534;2023-11-19T01:05:00;8.4;;;7.8;;
40527;SDS011;26230;51.268;6.534;2023-11-19T01:10:00;8.4;;;7.8;;
40527;SDS011;26230;51.268;6.534;2023-11-19T01:15:01;7.6;;;7.1;;
40527;SDS011;26230;51.268;6.534;2023-11-19T01:20:01;7.6;;;7.1;;
40527;SDS011;26230;51.268;6.534;2023-11-19T01:25:00;7.6;;;7.1;;
40527;SDS011;26230;51.268;6.534;2023-11-19T01:30:03;7.5;;;6.8;;
40527;SDS011;26230;51.268;6.534;2023-11-19T01:35:01;7.5;;;6.8;;
40527;SDS011;26230;51.268;6.534;2023-11-19T01:40:02;7.5;;;6.8;;
40527;SDS011;26230;51.268;6.534;2023-11-19T01:45:01;5.3;;;3.7;;
40527;SDS011;26230;51.268;6.534;2023-11-19T01:50:01;5.3;;;3.7;;
40527;SDS011;26230;51.268;6.534;2023-11-19T01:55:01;5.3;;;3.7;;
40527;SDS011;26230;51.268;6.534;2023-11-19T02:00:02;8.0;;;7.2;;
40527;SDS011;26230;51.268;6.534;2023-11-19T02:05:01;8.0;;;7.2;;
40527;SDS011;26230;51.268;6.534;2023-11-19T02:10:01;8.0;;;7.2;;
40527;SDS011;26230;51.268;6.534;2023-11-19T02:15:02;11.9;;;8.2;;
40527;SDS011;26230;51.268;6.534;2023-11-19T02:20:00;11.9;;;8.2;;
40527;SDS011;26230;51.268;6.534;2023-11-19T02:25:04;11.9;;;8.2;;
40527;SDS011;26230;51.268;6.534;2023-11-19T02:30:01;12.3;;;4.6;;
40527;SDS011;26230;51.268;6.534;2023-11-19T02:35:04;12.3;;;4.6;;
40527;SDS011;26230;51.268;6.534;2023-11-19T02:40:02;12.3;;;4.6;;
40527;SDS011;26230;51.268;6.534;2023-11-19T02:45:00;13.1;;;6.4;;
40527;SDS011;26230;51.268;6.534;2023-11-19T02:50:01;13.1;;;6.4;;
40527;SDS011;26230;51.268;6.534;2023-11-19T02:55:00;13.1;;;6.4;;
40527;SDS011;26230;51.268;6.534;2023-11-19T03:00:00;21.9;;;9.9;;
40527;SDS011;26230;51.268;6.534;2023-11-19T03:05:00;21.9;;;9.9;;
40527;SDS011;26230;51.268;6.534;2023-11-19T03:10:01;21.9;;;9.9;;
40527;SDS011;26230;51.268;6.534;2023-11-19T03:15:00;16.8;;;6.9;;
40527;SDS011;26230;51.268;6.534;2023-11-19T03:20:01;16.8;;;6.9;;
40527;SDS011;26230;51.268;6.534;2023-11-19T03:25:00;16.8;;;6.9;;
40527;SDS011;26230;51.268;6.534;2023-11-19T03:30:00;21.3;;;5.4;;
40527;SDS011;26230;51.268;6.534;2023-11-19T03:35:01;21.3;;;5.4;;
40527;SDS011;26230;51.268;6.534;2023-11-19T03:40:04;21.3;;;5.4;;
40527;SDS011;26230;51.268;6.534;2023-11-19T03:45:00;23.3;;;6.0;;
40527;SDS011;26230;51.268;6.534;2023-11-19T03:50:01;23.3;;;6.0;;
40527;SDS011;26230;51.268;6.534;2023-11-19T03:55:01;23.3;;;6.0;;
40527;SDS011;26230;51.268;6.534;2023-11-19T04:00:07;24.1;;;7.0;;
40527;SDS011;26230;51.268;6.534;2023-11-19T04:05:00;24.1;;;7.0;;
40527;SDS011;26230;51.268;6.534;2023-11-19T04:10:01;24.1;;;7.0;;
40527;SDS011;26230;51.268;6.534;2023-11-19T04:15:02;22.1;;;6.9;;
40527;SDS011;26230;51.268;6.534;2023-11-19T04:20:00;22.1;;;6.9;;
40527;SDS011;26230;51.268;6.534;2023-11-19T04:25:00;22.1;;;6.9;;
40527;SDS011;26230;51.268;6.534;2023-11-19T04:30:02;23.4;;;6.4;;
40527;SDS011;26230;51.268;6.534;2023-11-19T04:35:00;23.4;;;6.4;;
40527;SDS011;26230;51.268;6.534;2023-11-19T04:40:01;23.4;;;6.4;;
40527;SDS011;26230;51.268;6.534;2023-11-19T04:45:01;25.8;;;7.7;;
40527;SDS011;26230;51.268;6.534;2023-11-19T04:50:01;25.8;;;7.7;;
40527;SDS011;26230;51.268;6.534;2023-11-19T04:55:01;25.8;;;7.7;;
40527;SDS011;26230;51.268;6.534;2023-11-19T05:00:00;27.3;;;7.7;;
40527;SDS011;26230;51.268;6.534;2023-11-19T05:05:03;27.3;;;7.7;;
40527;SDS011;26230;51.268;6.534;2023-11-19T05:10:00;27.3;;;7.7;;
40527;SDS011;26230;51.268;6.534;2023-11-19T05:15:00;23.7;;;6.3;;
40527;SDS011;26230;51.268;6.534;2023-11-19T05:20:00;23.7;;;6.3;;
40527;SDS011;26230;51.268;6.534;2023-11-19T05:25:02;23.7;;;6.3;;
40527;SDS011;26230;51.268;6.534;2023-11-19T05:30:01;28.6;;;7.1;;
40527;SDS011;26230;51.268;6.534;2023-11-19T05:35:01;28.6;;;7.1;;
40527;SDS011;26230;51.268;6.534;2023-11-19T05:40:03;28.6;;;7.1;;
40527;SDS011;26230;51.268;6.534;2023-11-19T05:45:00;29.1;;;7.1;;
40527;SDS011;26230;51.268;6.534;2023-11-19T05:50:00;29.1;;;7.1;;
40527;SDS011;26230;51.268;6.534;2023-11-19T05:55:04;29.1;;;7.1;;
40527;SDS011;26230;51.268;6.534;2023-11-19T06:00:00;22.6;;;7.2;;
40527;SDS011;26230;51.268;6.534;2023-11-19T06:05:01;22.6;;;7.2;;
40527;SDS011;26230;51.268;6.534;2023-11-19T06:10:02;22.6;;;7.2;;
40527;SDS011;26230;51.268;6.534;2023-11-19T06:15:00;34.8;;;7.5;;
40527;SDS011;26230;51.268;6.534;2023-11-19T06:20:00;34.8;;;7.5;;
40527;SDS011;26230;51.268;6.534;2023-11-19T06:25:00;34.8;;;7.5;;
40527;SDS011;26230;51.268;6.534;2023-11-19T06:30:01;25.1;;;7.7;;
40527;SDS011;26230;51.268;6.534;2023-11-19T06:35:00;25.1;;;7.7;;
40527;SDS011;26230;51.268;6.534;2023-11-19T06:40:00;25.1;;;7.7;;
40527;SDS011;26230;51.268;6.534;2023-11-19T06:45:01;31.6;;;8.3;;
40527;SDS011;26230;51.268;6.534;2023-11-19T06:50:00;31.6;;;8.3;;
40527;SDS011;26230;51.268;6.534;2023-11-19T06:55:03;31.6;;;8.3;;
40527;SDS011;26230;51.268;6.534;2023-11-19T07:00:00;26.0;;;7.7;;
40527;SDS011;26230;51.268;6.534;2023-11-19T07:05:00;26.0;;;7.7;;
40527;SDS011;26230;51.268;6.534;2023-11-19T07:10:02;26.0;;;7.7;;
40527;SDS011;26230;51.268;6.534;2023-11-19T07:15:02;30.3;;;7.2;;
40527;SDS011;26230;51.268;6.534;2023-11-19T07:20:00;30.3;;;7.2;;
40527;SDS011;26230;51.268;6.534;2023-11-19T07:25:01;30.3;;;7.2;;
40527;SDS011;26230;51.268;6.534;2023-11-19T07:30:01;31.3;;;8.6;;
40527;SDS011;26230;51.268;6.534;2023-11-19T07:35:00;31.3;;;8.6;;
40527;SDS011;26230;51.268;6.534;2023-11-19T07:40:00;31.3;;;8.6;;
40527;SDS011;26230;51.268;6.534;2023-11-19T07:45:00;25.2;;;7.9;;
40527;SDS011;26230;51.268;6.534;2023-11-19T07:50:00;25.2;;;7.9;;
40527;SDS011;26230;51.268;6.534;2023-11-19T07:55:01;25.2;;;7.9;;
40527;SDS011;26230;51.268;6.534;2023-11-19T08:00:02;37.4;;;8.0;;
40527;SDS011;26230;51.268;6.534;2023-11-19T08:05:01;37.4;;;8.0;;
40527;SDS011;26230;51.268;6.534;2023-11-19T08:10:00;37.4;;;8.0;;
40527;SDS011;26230;51.268;6.534;2023-11-19T08:15:00;31.5;;;8.6;;
40527;SDS011;26230;51.268;6.534;2023-11-19T08:20:00;31.5;;;8.6;;
40527;SDS011;26230;51.268;6.534;2023-11-19T08:25:00;31.5;;;8.6;;
40527;SDS011;26230;51.268;6.534;2023-11-19T08:30:00;34.7;;;9.4;;
40527;SDS011;26230;51.268;6.534;2023-11-19T08:35:00;34.7;;;9.4;;
40527;SDS011;26230;51.268;6.534;2023-11-19T08:40:01;34.7;;;9.4;;
40527;SDS011;26230;51.268;6.534;2023-11-19T08:45:00;33.3;;;7.3;;
40527;SDS011;26230;51.268;6.534;2023-11-19T08:50:04;33.3;;;7.3;;
40527;SDS011;26230;51.268;6.534;2023-11-19T08:55:00;33.3;;;7.3;;
40527;SDS011;26230;51.268;6.534;2023-11-19T09:00:01;30.0;;;7.4;;
40527;SDS011;26230;51.268;6.534;2023-11-19T09:05:01;30.0;;;7.4;;
40527;SDS011;26230;51.268;6.534;2023-11-19T09:10:00;30.0;;;7.4;;
40527;SDS011;26230;51.268;6.534;2023-11-19T09:15:00;31.1;;;8.1;;
40527;SDS011;26230;51.268;6.534;2023-11-19T09:20:00;31.1;;;8.1;;
40527;SDS011;26230;51.268;6.534;2023-11-19T09:25:00;31.1;;;8.1;;
40527;SDS011;26230;51.268;6.534;2023-11-19T09:30:00;32.9;;;8.1;;
40527;SDS011;26230;51.268;6.534;2023-11-19T09:35:00;32.9;;;8.1;;
40527;SDS011;26230;51.268;6.534;2023-11-19T09:40:00;32.9;;;8.1;;
40527;SDS011;26230;51.268;6.534;2023-11-19T09:45:03;36.2;;;8.2;;
40527;SDS011;26230;51.268;6.534;2023-11-19T09:50:01;36.2;;;8.2;;
40527;SDS011;26230;51.268;6.534;2023-11-19T09:55:00;36.2;;;8.2;;
40527;SDS011;26230;51.268;6.534;2023-11-19T10:00:04;35.1;;;8.6;;
40527;SDS011;26230;51.268;6.534;2023-11-19T10:05:02;35.1;;;8.6;;
40527;SDS011;26230;51.268;6.534;2023-11-19T10:10:02;35.1;;;8.6;;
40527;SDS011;26230;51.268;6.534;2023-11-19T10:15:01;30.2;;;7.6;;
40527;SDS011;26230;51.268;6.534;2023-11-19T10:20:01;30.2;;;7.6;;
40527;SDS011;26230;51.268;6.534;2023-11-19T10:25:00;30.2;;;7.6;;
40527;SDS011;26230;51.268;6.534;2023-11-19T10:30:01;29.8;;;8.6;;
40527;SDS011;26230;51.268;6.534;2023-11-19T10:35:08;29.8;;;8.6;;
40527;SDS011;26230;51.268;6.534;2023-11-19T10:40:05;29.8;;;8.6;;
40527;SDS011;26230;51.268;6.534;2023-11-19T10:45:00;26.1;;;6.6;;
40527;SDS011;26230;51.268;6.534;2023-11-19T10:50:00;26.1;;;6.6;;
40527;SDS011;26230;51.268;6.534;2023-11-19T10:55:01;26.1;;;6.6;;
40527;SDS011;26230;51.268;6.534;2023-11-19T11:00:02;22.1;;;6.5;;
40527;SDS011;26230;51.268;6.534;2023-11-19T11:05:03;22.1;;;6.5;;
40527;SDS011;26230;51.268;6.534;2023-11-19T11:10:01;22.1;;;6.5;;
40527;SDS011;26230;51.268;6.534;2023-11-19T11:15:01;28.2;;;6.7;;
40527;SDS011;26230;51.268;6.534;2023-11-19T11:20:02;28.2;;;6.7;;
40527;SDS011;26230;51.268;6.534;2023-11-19T11:35:09;21.5;;;6.0;;
40527;SDS011;26230;51.268;6.534;2023-11-19T11:40:05;21.5;;;6.0;;
40527;SDS011;26230;51.268;6.534;2023-11-19T11:45:09;26.9;;;6.7;;
40527;SDS011;26230;51.268;6.534;2023-11-19T11:50:08;26.9;;;6.7;;
40527;SDS011;26230;51.268;6.534;2023-11-19T11:55:09;26.9;;;6.7;;
40527;SDS011;26230;51.268;6.534;2023-11-19T12:00:05;21.6;;;6.4;;
40527;SDS011;26230;51.268;6.534;2023-11-19T12:05:03;21.6;;;6.4;;
40527;SDS011;26230;51.268;6.534;2023-11-19T12:10:12;21.6;;;6.4;;
40527;SDS011;26230;51.268;6.534;2023-11-19T12:15:02;22.3;;;6.7;;
40527;SDS011;26230;51.268;6.534;2023-11-19T12:20:02;22.3;;;6.7;;
40527;SDS011;26230;51.268;6.534;2023-11-19T12:25:01;22.3;;;6.7;;
40527;SDS011;26230;51.268;6.534;2023-11-19T12:30:04;24.0;;;6.7;;
40527;SDS011;26230;51.268;6.534;2023-11-19T12:35:00;24.0;;;6.7;;
40527;SDS011;26230;51.268;6.534;2023-11-19T12:40:00;24.0;;;6.7;;
40527;SDS011;26230;51.268;6.534;2023-11-19T12:45:00;21.6;;;6.1;;
40527;SDS011;26230;51.268;6.534;2023-11-19T12:50:00;21.6;;;6.1;;
40527;SDS011;26230;51.268;6.534;2023-11-19T12:55:01;21.6;;;6.1;;
40527;SDS011;26230;51.268;6.534;2023-11-19T13:00:01;27.0;;;6.5;;
40527;SDS011;26230;51.268;6.534;2023-11-19T13:05:20;27.0;;;6.5;;
40527;SDS011;26230;51.268;6.534;2023-11-19T13:10:02;27.0;;;6.5;;
40527;SDS011;26230;51.268;6.534;2023-11-19T13:15:00;21.5;;;5.6;;
40527;SDS011;26230;51.268;6.534;2023-11-19T13:20:00;21.5;;;5.6;;
40527;SDS011;26230;51.268;6.534;2023-11-19T13:25:01;21.5;;;5.6;;
40527;SDS011;26230;51.268;6.534;2023-11-19T13:30:04;21.3;;;5.8;;
40527;SDS011;26230;51.268;6.534;2023-11-19T13:35:02;21.3;;;5.8;;
40527;SDS011;26230;51.268;6.534;2023-11-19T13:40:01;21.3;;;5.8;;
40527;SDS011;26230;51.268;6.534;2023-11-19T13:45:00;25.2;;;6.4;;
40527;SDS011;26230;51.268;6.534;2023-11-19T13:50:00;25.2;;;6.4;;
40527;SDS011;26230;51.268;6.534;2023-11-19T13:55:00;25.2;;;6.4;;
40527;SDS011;26230;51.268;6.534;2023-11-19T14:00:05;26.5;;;6.6;;
40527;SDS011;26230;51.268;6.534;2023-11-19T14:05:00;26.5;;;6.6;;
40527;SDS011;26230;51.268;6.534;2023-11-19T14:10:00;26.5;;;6.6;;
40527;SDS011;26230;51.268;6.534;2023-11-19T14:15:00;25.5;;;6.5;;
40527;SDS011;26230;51.268;6.534;2023-11-19T14:20:01;25.5;;;6.5;;
40527;SDS011;26230;51.268;6.534;2023-11-19T14:25:00;25.5;;;6.5;;
40527;SDS011;26230;51.268;6.534;2023-11-19T14:30:00;27.8;;;7.2;;
40527;SDS011;26230;51.268;6.534;2023-11-19T14:35:00;27.8;;;7.2;;
40527;SDS011;26230;51.268;6.534;2023-11-19T14:40:04;27.8;;;7.2;;
40527;SDS011;26230;51.268;6.534;2023-11-19T14:45:00;24.3;;;6.5;;
40527;SDS011;26230;51.268;6.534;2023-11-19T14:50:00;24.3;;;6.5;;
40527;SDS011;26230;51.268;6.534;2023-11-19T14:55:00;24.3;;;6.5;;
40527;SDS011;26230;51.268;6.534;2023-11-19T15:00:01;27.5;;;6.6;;
40527;SDS011;26230;51.268;6.534;2023-11-19T15:05:00;27.5;;;6.6;;
40527;SDS011;26230;51.268;6.534;2023-11-19T15:10:01;27.5;;;6.6;;
40527;SDS011;26230;51.268;6.534;2023-11-19T15:15:00;30.7;;;6.5;;
40527;SDS011;26230;51.268;6.534;2023-11-19T15:20:01;30.7;;;6.5;;
40527;SDS011;26230;51.268;6.534;2023-11-19T15:25:01;30.7;;;6.5;;
40527;SDS011;26230;51.268;6.534;2023-11-19T15:30:01;26.6;;;5.9;;
40527;SDS011;26230;51.268;6.534;2023-11-19T15:35:01;26.6;;;5.9;;
40527;SDS011;26230;51.268;6.534;2023-11-19T15:40:00;26.6;;;5.9;;
40527;SDS011;26230;51.268;6.534;2023-11-19T15:45:05;25.0;;;6.2;;
40527;SDS011;26230;51.268;6.534;2023-11-19T15:50:01;25.0;;;6.2;;
40527;SDS011;26230;51.268;6.534;2023-11-19T15:55:00;25.0;;;6.2;;
40527;SDS011;26230;51.268;6.534;2023-11-19T16:00:00;25.7;;;7.0;;
40527;SDS011;26230;51.268;6.534;2023-11-19T16:05:01;25.7;;;7.0;;
40527;SDS011;26230;51.268;6.534;2023-11-19T16:10:03;25.7;;;7.0;;
40527;SDS011;26230;51.268;6.534;2023-11-19T16:15:00;33.9;;;7.3;;
40527;SDS011;26230;51.268;6.534;2023-11-19T16:20:06;33.9;;;7.3;;
40527;SDS011;26230;51.268;6.534;2023-11-19T16:25:00;33.9;;;7.3;;
40527;SDS011;26230;51.268;6.534;2023-11-19T16:30:01;28.8;;;7.5;;
40527;SDS011;26230;51.268;6.534;2023-11-19T16:35:00;28.8;;;7.5;;
40527;SDS011;26230;51.268;6.534;2023-11-19T16:40:00;28.8;;;7.5;;
40527;SDS011;26230;51.268;6.534;2023-11-19T16:45:00;29.4;;;6.2;;
40527;SDS011;26230;51.268;6.534;2023-11-19T16:50:00;29.4;;;6.2;;
40527;SDS011;26230;51.268;6.534;2023-11-19T16:55:04;29.4;;;6.2;;
40527;SDS011;26230;51.268;6.534;2023-11-19T17:00:00;28.8;;;7.2;;
40527;SDS011;26230;51.268;6.534;2023-11-19T17:05:02;28.8;;;7.2;;
40527;SDS011;26230;51.268;6.534;2023-11-19T17:10:02;28.8;;;7.2;;
40527;SDS011;26230;51.268;6.534;2023-11-19T17:15:03;25.8;;;6.5;;
40527;SDS011;26230;51.268;6.534;2023-11-19T17:20:04;25.8;;;6.5;;
40527;SDS011;26230;51.268;6.534;2023-11-19T17:25:01;25.8;;;6.5;;
40527;SDS011;26230;51.268;6.534;2023-11-19T17:30:03;38.0;;;7.4;;
40527;SDS011;26230;51.268;6.534;2023-11-19T17:35:00;38.0;;;7.4;;
40527;SDS011;26230;51.268;6.534;2023-11-19T17:40:00;38.0;;;7.4;;
40527;SDS011;26230;51.268;6.534;2023-11-19T17:45:00;31.9;;;7.7;;
40527;SDS011;26230;51.268;6.534;2023-11-19T17:50:02;31.9;;;7.7;;
40527;SDS011;26230;51.268;6.534;2023-11-19T17:55:03;31.9;;;7.7;;
40527;SDS011;26230;51.268;6.534;2023-11-19T18:05:01;28.0;;;7.1;;
40527;SDS011;26230;51.268;6.534;2023-11-19T18:10:00;28.0;;;7.1;;
40527;SDS011;26230;51.268;6.534;2023-11-19T18:15:00;22.8;;;6.6;;
40527;SDS011;26230;51.268;6.534;2023-11-19T18:20:01;22.8;;;6.6;;
40527;SDS011;26230;51.268;6.534;2023-11-19T18:25:02;22.8;;;6.6;;
40527;SDS011;26230;51.268;6.534;2023-11-19T18:30:01;22.6;;;6.3;;
40527;SDS011;26230;51.268;6.534;2023-11-19T18:35:00;22.6;;;6.3;;
40527;SDS011;26230;51.268;6.534;2023-11-19T18:40:00;22.6;;;6.3;;
40527;SDS011;26230;51.268;6.534;2023-11-19T18:45:00;28.9;;;8.0;;
40527;SDS011;26230;51.268;6.534;2023-11-19T18:50:00;28.9;;;8.0;;
40527;SDS011;26230;51.268;6.534;2023-11-19T18:55:00;28.9;;;8.0;;
40527;SDS011;26230;51.268;6.534;2023-11-19T19:05:01;23.0;;;6.6;;
40527;SDS011;26230;51.268;6.534;2023-11-19T19:10:02;23.0;;;6.6;;
40527;SDS011;26230;51.268;6.534;2023-11-19T19:15:04;31.7;;;8.9;;
40527;SDS011;26230;51.268;6.534;2023-11-19T19:30:00;24.3;;;7.3;;
40527;SDS011;26230;51.268;6.534;2023-11-19T19:35:00;24.3;;;7.3;;
40527;SDS011;26230;51.268;6.534;2023-11-19T19:40:11;24.3;;;7.3;;
40527;SDS011;26230;51.268;6.534;2023-11-19T19:45:00;23.0;;;6.8;;
40527;SDS011;26230;51.268;6.534;2023-11-19T19:50:01;23.0;;;6.8;;
40527;SDS011;26230;51.268;6.534;2023-11-19T19:55:01;23.0;;;6.8;;
40527;SDS011;26230;51.268;6.534;2023-11-19T20:00:01;25.6;;;8.2;;
40527;SDS011;26230;51.268;6.534;2023-11-19T20:05:00;25.6;;;8.2;;
40527;SDS011;26230;51.268;6.534;2023-11-19T20:10:00;25.6;;;8.2;;
40527;SDS011;26230;51.268;6.534;2023-11-19T20:15:01;27.0;;;8.9;;
40527;SDS011;26230;51.268;6.534;2023-11-19T20:20:01;27.0;;;8.9;;
40527;SDS011;26230;51.268;6.534;2023-11-19T20:25:00;27.0;;;8.9;;
40527;SDS011;26230;51.268;6.534;2023-11-19T20:30:00;24.6;;;8.2;;
40527;SDS011;26230;51.268;6.534;2023-11-19T20:35:01;24.6;;;8.2;;
40527;SDS011;26230;51.268;6.534;2023-11-19T20:40:00;24.6;;;8.2;;
40527;SDS011;26230;51.268;6.534;2023-11-19T20:45:01;33.0;;;7.5;;
40527;SDS011;26230;51.268;6.534;2023-11-19T20:50:02;33.0;;;7.5;;
40527;SDS011;26230;51.268;6.534;2023-11-19T20:55:02;33.0;;;7.5;;
40527;SDS011;26230;51.268;6.534;2023-11-19T21:00:00;18.8;;;6.9;;
40527;SDS011;26230;51.268;6.534;2023-11-19T21:05:00;18.8;;;6.9;;
40527;SDS011;26230;51.268;6.534;2023-11-19T21:10:00;18.8;;;6.9;;
40527;SDS011;26230;51.268;6.534;2023-11-19T21:15:00;18.1;;;7.0;;
40527;SDS011;26230;51.268;6.534;2023-11-19T21:20:01;18.1;;;7.0;;
40527;SDS011;26230;51.268;6.534;2023-11-19T21:25:01;18.1;;;7.0;;
40527;SDS011;26230;51.268;6.534;2023-11-19T21:30:04;13.0;;;6.1;;
40527;SDS011;26230;51.268;6.534;2023-11-19T21:35:00;13.0;;;6.1;;
40527;SDS011;26230;51.268;6.534;2023-11-19T21:40:05;13.0;;;6.1;;
40527;SDS011;26230;51.268;6.534;2023-11-19T21:45:02;11.4;;;5.7;;
40527;SDS011;26230;51.268;6.534;2023-11-19T21:50:01;11.4;;;5.7;;
40527;SDS011;26230;51.268;6.534;2023-11-19T21:55:03;11.4;;;5.7;;
40527;SDS011;26230;51.268;6.534;2023-11-19T22:00:00;11.5;;;5.5;;
40527;SDS011;26230;51.268;6.534;2023-11-19T22:05:00;11.5;;;5.5;;
40527;SDS011;26230;51.268;6.534;2023-11-19T22:10:03;11.5;;;5.5;;
40527;SDS011;26230;51.268;6.534;2023-11-19T22:15:01;11.0;;;5.6;;
40527;SDS011;26230;51.268;6.534;2023-11-19T22:20:00;11.0;;;5.6;;
40527;SDS011;26230;51.268;6.534;2023-11-19T22:25:01;11.0;;;5.6;;
40527;SDS011;26230;51.268;6.534;2023-11-19T22:30:01;14.9;;;5.4;;
40527;SDS011;26230;51.268;6.534;2023-11-19T22:35:00;14.9;;;5.4;;
40527;SDS011;26230;51.268;6.534;2023-11-19T22:40:00;14.9;;;5.4;;
40527;SDS011;26230;51.268;6.534;2023-11-19T22:45:01;13.3;;;5.6;;
40527;SDS011;26230;51.268;6.534;2023-11-19T22:50:00;13.3;;;5.6;;
40527;SDS011;26230;51.268;6.534;2023-11-19T22:55:00;13.3;;;5.6;;
40527;SDS011;26230;51.268;6.534;2023-11-19T23:00:03;16.7;;;6.5;;
40527;SDS011;26230;51.268;6.534;2023-11-19T23:05:00;16.7;;;6.5;;
40527;SDS011;26230;51.268;6.534;2023-11-19T23:10:05;16.7;;;6.5;;
40527;SDS011;26230;51.268;6.534;2023-11-19T23:15:04;10.1;;;4.9;;
40527;SDS011;26230;51.268;6.534;2023-11-19T23:20:11;10.1;;;4.9;;
40527;SDS011;26230;51.268;6.534;2023-11-19T23:25:00;10.1;;;4.9;;
40527;SDS011;26230;51.268;6.534;2023-11-19T23:30:00;13.5;;;4.7;;
40527;SDS011;26230;51.268;6.534;2023-11-19T23:35:01;13.5;;;4.7;;
40527;SDS011;26230;51.268;6.534;2023-11-19T23:40:01;13.5;;;4.7;;
40527;SDS011;26230;51.268;6.534;2023-11-19T23:45:00;15.5;;;4.6;;
40527;SDS011;26230;51.268;6.534;2023-11-19T23:50:00;15.5;;;4.6;;
40527;SDS011;26230;51.268;6.534;2023-11-19T23:55:00;15.5;;;4.6;;
